Time;durP1;ratioP1;P1;durP2;ratioP2;P2;SDS_P1;SDS_P2;PMS_P1;PMS_P2;Temp;Humidity;BMP_temperature;BMP_pressure;BME280_temperature;BME280_humidity;BME280_pressure;Samples;Min_cycle;Max_cycle;Signal;HPM_P1;HPM_P2
2021/03/14 00:01:38;;;;;;;10.70;4.03;;;5.80;99.90;;;;;;5008959;28;20328;-88
2021/03/14 00:04:05;;;;;;;7.63;2.70;;;5.80;99.90;;;;;;5007346;28;20251;-87
2021/03/14 00:06:32;;;;;;;5.80;2.80;;;5.80;99.90;;;;;;5014129;28;20283;-87
2021/03/14 00:08:58;;;;;;;5.90;3.13;;;5.80;99.90;;;;;;5012718;28;20291;-87
2021/03/14 00:11:25;;;;;;;9.63;3.33;;;5.90;99.90;;;;;;5023737;28;20323;-87
2021/03/14 00:13:51;;;;;;;4.70;2.80;;;6.00;99.90;;;;;;5013858;28;20819;-86
2021/03/14 00:16:17;;;;;;;7.10;3.00;;;5.90;99.90;;;;;;5014417;28;20677;-87
2021/03/14 00:18:44;;;;;;;5.60;2.47;;;5.90;99.90;;;;;;5020032;28;20218;-89
2021/03/14 00:21:11;;;;;;;8.63;3.10;;;5.90;99.90;;;;;;5012015;28;20307;-87
2021/03/14 00:23:39;;;;;;;9.27;3.27;;;5.90;99.90;;;;;;5019660;28;20657;-86
2021/03/14 00:26:06;;;;;;;8.53;2.90;;;5.80;99.90;;;;;;5009414;28;20240;-88
2021/03/14 00:28:32;;;;;;;12.10;3.43;;;5.90;99.90;;;;;;5027252;28;20298;-86
2021/03/14 00:30:59;;;;;;;12.87;3.20;;;5.90;99.90;;;;;;5010066;28;20287;-87
2021/03/14 00:33:25;;;;;;;6.67;2.63;;;5.90;99.90;;;;;;5027067;28;20218;-87
2021/03/14 00:35:52;;;;;;;6.30;2.60;;;5.90;99.90;;;;;;5002410;28;20717;-88
2021/03/14 00:38:18;;;;;;;5.43;2.70;;;6.00;99.90;;;;;;5021380;28;20287;-86
2021/03/14 00:40:45;;;;;;;4.50;3.10;;;5.90;99.90;;;;;;5018316;28;20251;-87
2021/03/14 00:43:12;;;;;;;9.37;2.63;;;5.90;99.90;;;;;;5009040;28;20688;-88
2021/03/14 00:45:39;;;;;;;9.77;2.97;;;6.00;99.90;;;;;;5008364;28;20232;-87
2021/03/14 00:48:08;;;;;;;8.77;3.57;;;6.00;99.90;;;;;;5015912;28;20668;-87
2021/03/14 00:50:35;;;;;;;5.60;2.90;;;5.90;99.90;;;;;;5018421;28;20247;-89
2021/03/14 00:53:01;;;;;;;10.67;3.20;;;5.90;99.90;;;;;;5010898;28;20215;-87
2021/03/14 00:55:28;;;;;;;9.83;3.07;;;5.90;99.90;;;;;;5007205;28;20715;-87
2021/03/14 00:57:55;;;;;;;6.63;3.03;;;6.00;99.90;;;;;;5014116;28;20624;-87
2021/03/14 01:00:23;;;;;;;9.97;3.30;;;6.10;99.90;;;;;;5017030;28;20239;-87
2021/03/14 01:02:49;;;;;;;7.67;3.10;;;6.00;99.90;;;;;;5017526;28;20302;-87
2021/03/14 01:05:16;;;;;;;10.80;3.83;;;6.00;99.90;;;;;;5015606;28;20229;-89
2021/03/14 01:07:42;;;;;;;7.43;3.60;;;6.00;99.90;;;;;;5018410;28;20247;-86
2021/03/14 01:10:11;;;;;;;13.10;3.53;;;6.00;99.90;;;;;;5015121;28;20234;-88
2021/03/14 01:12:37;;;;;;;11.87;3.60;;;6.10;99.90;;;;;;5014375;28;20296;-88
2021/03/14 01:15:07;;;;;;;7.07;3.50;;;6.00;99.90;;;;;;5006642;28;21087;-87
2021/03/14 01:17:33;;;;;;;7.50;3.20;;;6.00;99.90;;;;;;5014451;28;20299;-87
2021/03/14 01:20:00;;;;;;;10.10;3.60;;;6.10;99.90;;;;;;5011241;28;20212;-87
2021/03/14 01:22:26;;;;;;;10.17;3.40;;;6.10;99.90;;;;;;5009970;28;20254;-86
2021/03/14 01:24:53;;;;;;;7.20;3.10;;;6.00;99.90;;;;;;4996372;28;20737;-87
2021/03/14 01:27:19;;;;;;;11.37;3.70;;;6.10;99.90;;;;;;5009011;28;20278;-89
2021/03/14 01:29:45;;;;;;;9.17;3.10;;;6.10;99.90;;;;;;5012084;28;20228;-87
2021/03/14 01:32:13;;;;;;;7.87;3.27;;;6.10;99.90;;;;;;5010030;28;20315;-88
2021/03/14 01:34:39;;;;;;;10.97;3.93;;;6.20;99.90;;;;;;5009597;28;20221;-89
2021/03/14 01:37:05;;;;;;;7.67;3.33;;;6.10;99.90;;;;;;5003042;28;20287;-86
2021/03/14 01:39:40;;;;;;;9.43;3.53;;;6.10;99.90;;;;;;5012978;28;20288;-87
2021/03/14 01:42:06;;;;;;;8.97;2.50;;;6.10;99.90;;;;;;5008827;28;20743;-88
2021/03/14 01:44:33;;;;;;;5.97;2.87;;;6.20;99.90;;;;;;5010117;28;20931;-86
2021/03/14 01:47:00;;;;;;;5.37;3.90;;;6.20;99.90;;;;;;5013379;28;20690;-86
2021/03/14 01:49:27;;;;;;;6.67;3.17;;;6.20;99.90;;;;;;5011213;28;21780;-87
2021/03/14 01:51:54;;;;;;;11.23;3.33;;;6.20;99.90;;;;;;5008608;28;20234;-87
2021/03/14 01:54:20;;;;;;;6.10;3.13;;;6.20;99.90;;;;;;5013662;28;20363;-87
2021/03/14 01:56:47;;;;;;;9.50;3.57;;;6.20;99.90;;;;;;5008711;28;20226;-88
2021/03/14 01:59:14;;;;;;;8.43;3.30;;;6.20;99.90;;;;;;5021147;28;20279;-87
2021/03/14 02:01:41;;;;;;;8.37;3.20;;;6.20;99.90;;;;;;5013085;28;21195;-87
2021/03/14 02:04:07;;;;;;;5.30;3.10;;;6.30;99.90;;;;;;5012565;28;20208;-87
2021/03/14 02:06:35;;;;;;;5.27;2.50;;;6.20;99.90;;;;;;5007308;28;20904;-87
2021/03/14 02:09:01;;;;;;;3.87;2.43;;;6.10;99.90;;;;;;5007602;28;20283;-86
2021/03/14 02:11:32;;;;;;;6.23;2.30;;;5.50;99.90;;;;;;5006079;28;20308;-86
2021/03/14 02:14:00;;;;;;;9.10;3.20;;;5.30;99.90;;;;;;5009695;28;20295;-88
2021/03/14 02:16:30;;;;;;;11.70;2.60;;;5.20;99.90;;;;;;5006096;28;20449;-87
2021/03/14 02:19:00;;;;;;;4.77;2.20;;;5.10;99.90;;;;;;5002388;28;20231;-87
2021/03/14 02:21:32;;;;;;;7.27;2.83;;;5.10;99.90;;;;;;5009574;28;20222;-88
2021/03/14 02:24:03;;;;;;;4.93;2.27;;;5.00;99.90;;;;;;5010651;28;20768;-88
2021/03/14 02:26:35;;;;;;;6.50;3.07;;;5.00;99.90;;;;;;5006142;28;20307;-88
2021/03/14 02:29:03;;;;;;;4.07;2.60;;;4.90;99.90;;;;;;5010154;28;20207;-88
2021/03/14 02:31:30;;;;;;;4.20;2.60;;;5.00;99.90;;;;;;4996754;28;20235;-87
2021/03/14 02:34:00;;;;;;;9.53;3.37;;;5.00;99.90;;;;;;5000183;28;20211;-87
2021/03/14 02:36:28;;;;;;;7.83;3.50;;;5.10;99.90;;;;;;5000044;28;20203;-88
2021/03/14 02:38:54;;;;;;;9.27;3.97;;;5.60;99.90;;;;;;5002803;28;20219;-87
2021/03/14 02:41:22;;;;;;;6.97;3.30;;;5.80;99.90;;;;;;4999305;28;20217;-87
2021/03/14 02:43:48;;;;;;;9.63;3.60;;;6.00;99.90;;;;;;5002909;28;20209;-87
2021/03/14 02:46:16;;;;;;;7.57;3.30;;;6.00;99.90;;;;;;5006095;28;20204;-87
2021/03/14 02:48:43;;;;;;;10.47;3.20;;;5.90;99.90;;;;;;4996790;28;20233;-87
2021/03/14 02:51:11;;;;;;;7.37;3.57;;;5.90;99.90;;;;;;4996296;28;20682;-87
2021/03/14 02:53:39;;;;;;;6.50;2.87;;;6.00;99.90;;;;;;4997434;28;20221;-87
2021/03/14 02:56:06;;;;;;;10.83;3.77;;;6.00;99.90;;;;;;4996415;28;20592;-87
2021/03/14 02:58:33;;;;;;;8.00;3.10;;;6.00;99.90;;;;;;4998751;28;20213;-88
2021/03/14 03:01:01;;;;;;;4.97;2.87;;;6.00;99.90;;;;;;5005655;28;20278;-88
2021/03/14 03:03:29;;;;;;;8.80;3.00;;;6.00;99.90;;;;;;4999007;28;20657;-88
2021/03/14 03:05:57;;;;;;;9.97;3.77;;;6.00;99.90;;;;;;5002517;28;20287;-87
2021/03/14 03:08:25;;;;;;;5.73;3.10;;;6.10;99.90;;;;;;5004952;28;20624;-87
2021/03/14 03:10:53;;;;;;;11.63;3.83;;;6.00;99.90;;;;;;5002751;28;20713;-88
2021/03/14 03:13:20;;;;;;;16.47;4.13;;;6.00;99.90;;;;;;5006880;28;20213;-88
2021/03/14 03:15:48;;;;;;;9.20;3.80;;;6.00;99.90;;;;;;5007932;28;20214;-87
2021/03/14 03:18:17;;;;;;;8.03;3.57;;;6.20;99.90;;;;;;5017297;28;20204;-87
2021/03/14 03:20:45;;;;;;;12.00;3.50;;;6.00;99.90;;;;;;5011202;28;20227;-86
2021/03/14 03:23:14;;;;;;;10.67;3.87;;;6.00;99.90;;;;;;5012401;28;20207;-86
2021/03/14 03:25:41;;;;;;;10.53;3.83;;;5.90;99.90;;;;;;5010658;28;20639;-87
2021/03/14 03:28:07;;;;;;;8.63;3.80;;;6.00;99.90;;;;;;5005144;28;20224;-87
2021/03/14 03:30:38;;;;;;;11.47;3.50;;;6.00;99.90;;;;;;5006349;28;20235;-87
2021/03/14 03:33:05;;;;;;;7.87;3.47;;;6.00;99.90;;;;;;5007394;28;20240;-87
2021/03/14 03:35:32;;;;;;;8.13;3.90;;;6.00;99.90;;;;;;5011074;28;20248;-86
2021/03/14 03:37:59;;;;;;;8.97;3.40;;;5.90;99.90;;;;;;5002502;28;20575;-88
2021/03/14 03:40:28;;;;;;;10.60;3.63;;;6.00;99.90;;;;;;5006880;28;20344;-87
2021/03/14 03:43:00;;;;;;;6.03;3.30;;;6.00;99.90;;;;;;5009440;28;20287;-88
2021/03/14 03:45:29;;;;;;;8.37;3.30;;;6.00;99.90;;;;;;5008851;28;20847;-87
2021/03/14 03:47:57;;;;;;;7.13;3.53;;;5.90;99.90;;;;;;5004386;28;20292;-87
2021/03/14 03:50:25;;;;;;;10.33;3.70;;;5.90;99.90;;;;;;5007948;28;20315;-87
2021/03/14 03:52:55;;;;;;;10.23;3.07;;;5.90;99.90;;;;;;5010874;28;20220;-88
2021/03/14 03:55:23;;;;;;;6.30;3.67;;;5.90;99.90;;;;;;5012280;28;20308;-87
2021/03/14 03:57:50;;;;;;;5.93;3.27;;;5.90;99.90;;;;;;5011109;28;20220;-87
2021/03/14 04:00:19;;;;;;;13.10;3.40;;;6.00;99.90;;;;;;5004018;28;20311;-87
2021/03/14 04:02:46;;;;;;;9.80;3.40;;;5.90;99.90;;;;;;5010437;28;20214;-87
2021/03/14 04:05:14;;;;;;;8.17;3.20;;;5.90;99.90;;;;;;5008810;28;20287;-87
2021/03/14 04:07:42;;;;;;;7.50;3.07;;;5.90;99.90;;;;;;5009389;28;20204;-88
2021/03/14 04:10:10;;;;;;;7.60;3.23;;;5.90;99.90;;;;;;5014965;28;20214;-86
2021/03/14 04:12:39;;;;;;;7.07;3.40;;;5.90;99.90;;;;;;5015482;28;20294;-88
2021/03/14 04:15:08;;;;;;;9.50;3.50;;;5.90;99.90;;;;;;5008514;28;20295;-87
2021/03/14 04:17:36;;;;;;;12.07;3.43;;;5.80;99.90;;;;;;5002085;28;20292;-87
2021/03/14 04:20:05;;;;;;;11.33;3.77;;;5.80;99.90;;;;;;5003447;28;20228;-87
2021/03/14 04:22:32;;;;;;;8.87;3.70;;;5.60;99.90;;;;;;5007264;28;20243;-88
2021/03/14 04:25:01;;;;;;;2.87;1.77;;;5.60;99.90;;;;;;5012189;28;20295;-87
2021/03/14 04:27:29;;;;;;;5.00;2.00;;;4.70;99.90;;;;;;5008026;28;20200;-89
2021/03/14 04:29:56;;;;;;;2.57;1.63;;;4.50;99.90;;;;;;5009217;28;20220;-88
2021/03/14 04:32:23;;;;;;;5.43;2.00;;;4.30;99.90;;;;;;5001717;28;20227;-87
2021/03/14 04:34:51;;;;;;;6.00;1.87;;;4.20;99.90;;;;;;5010013;28;20208;-88
2021/03/14 04:37:17;;;;;;;4.77;2.03;;;4.10;99.90;;;;;;5002305;28;20288;-87
2021/03/14 04:39:45;;;;;;;5.30;1.97;;;4.00;99.90;;;;;;5004936;28;20294;-88
2021/03/14 04:42:11;;;;;;;6.37;2.40;;;4.10;99.90;;;;;;5004915;28;20303;-88
2021/03/14 04:44:38;;;;;;;6.87;2.50;;;4.10;99.90;;;;;;5006904;28;20215;-87
2021/03/14 04:47:06;;;;;;;6.07;3.13;;;4.10;99.90;;;;;;5008402;28;20224;-88
2021/03/14 04:49:34;;;;;;;10.43;3.30;;;4.20;99.90;;;;;;5005856;28;20300;-87
2021/03/14 04:52:01;;;;;;;4.40;2.80;;;4.30;99.90;;;;;;5009552;28;20682;-88
2021/03/14 04:54:30;;;;;;;7.70;3.27;;;4.40;99.90;;;;;;5008424;28;20204;-88
2021/03/14 04:56:58;;;;;;;8.30;3.60;;;4.50;99.90;;;;;;5003749;28;20300;-88
2021/03/14 04:59:26;;;;;;;11.47;3.93;;;4.60;99.90;;;;;;5009562;28;20208;-87
2021/03/14 05:01:53;;;;;;;9.93;3.63;;;4.60;99.90;;;;;;5006324;28;20235;-88
2021/03/14 05:04:22;;;;;;;11.80;3.87;;;4.60;99.90;;;;;;5004861;28;20645;-87
2021/03/14 05:06:49;;;;;;;8.27;2.73;;;4.70;99.90;;;;;;5000702;28;20204;-88
2021/03/14 05:09:17;;;;;;;2.93;2.40;;;4.50;99.90;;;;;;5000111;28;20225;-88
2021/03/14 05:11:44;;;;;;;5.03;2.47;;;4.30;99.90;;;;;;4998733;28;20323;-88
2021/03/14 05:14:12;;;;;;;5.83;2.60;;;4.30;99.90;;;;;;5005057;28;20228;-88
2021/03/14 05:16:41;;;;;;;6.93;3.03;;;4.40;99.90;;;;;;5001707;28;20299;-88
2021/03/14 05:19:08;;;;;;;7.50;2.60;;;4.40;99.90;;;;;;5001728;28;20228;-88
2021/03/14 05:21:44;;;;;;;5.83;2.43;;;4.40;99.90;;;;;;5007945;28;20307;-88
2021/03/14 05:24:13;;;;;;;5.47;3.23;;;4.50;99.90;;;;;;5013552;28;20323;-87
2021/03/14 05:26:41;;;;;;;8.40;3.13;;;4.50;99.90;;;;;;5010386;28;20287;-87
2021/03/14 05:29:10;;;;;;;5.80;3.07;;;4.60;99.90;;;;;;5006748;28;20270;-87
2021/03/14 05:31:37;;;;;;;5.67;2.80;;;4.70;99.90;;;;;;5008873;28;20315;-87
2021/03/14 05:34:05;;;;;;;2.00;1.80;;;4.70;99.90;;;;;;5003574;28;20288;-88
2021/03/14 05:36:32;;;;;;;3.40;1.33;;;4.60;99.90;;;;;;5006565;28;20283;-87
2021/03/14 05:39:03;;;;;;;2.80;1.17;;;4.50;99.90;;;;;;5008383;28;20391;-88
2021/03/14 05:41:32;;;;;;;3.67;0.80;;;4.40;99.90;;;;;;5003101;28;20241;-88
2021/03/14 05:43:59;;;;;;;1.50;1.20;;;4.40;99.90;;;;;;5009078;28;20291;-87
2021/03/14 05:46:26;;;;;;;1.20;1.00;;;4.50;99.90;;;;;;5002169;28;20292;-88
2021/03/14 05:48:53;;;;;;;1.80;1.30;;;4.30;99.90;;;;;;5008332;28;20323;-87
2021/03/14 05:51:24;;;;;;;1.97;1.57;;;4.40;99.90;;;;;;5009183;28;20307;-87
2021/03/14 05:53:53;;;;;;;2.57;1.60;;;4.30;99.90;;;;;;5007364;28;20236;-88
2021/03/14 05:56:21;;;;;;;4.10;2.00;;;4.40;99.90;;;;;;5003842;28;20288;-88
2021/03/14 05:58:49;;;;;;;2.60;2.20;;;4.30;99.90;;;;;;5000514;28;20216;-88
2021/03/14 06:01:17;;;;;;;8.03;3.37;;;4.40;99.90;;;;;;5003077;28;20260;-88
2021/03/14 06:03:44;;;;;;;8.00;2.60;;;4.40;99.90;;;;;;5000179;28;20220;-88
2021/03/14 06:06:13;;;;;;;6.97;2.60;;;4.40;99.90;;;;;;5003270;28;20661;-87
2021/03/14 06:08:40;;;;;;;5.43;2.80;;;4.50;99.90;;;;;;5011451;28;20212;-87
2021/03/14 06:11:08;;;;;;;10.13;3.30;;;4.50;99.90;;;;;;5002464;28;20245;-88
2021/03/14 06:13:35;;;;;;;6.10;3.10;;;4.60;99.90;;;;;;5013234;28;20292;-88
2021/03/14 06:16:02;;;;;;;7.27;3.20;;;4.60;99.90;;;;;;5000936;28;20299;-88
2021/03/14 06:18:29;;;;;;;8.80;3.33;;;4.60;99.90;;;;;;5007766;28;20214;-88
2021/03/14 06:20:55;;;;;;;6.70;3.50;;;4.60;99.90;;;;;;5000015;28;20311;-88
2021/03/14 06:23:25;;;;;;;9.60;3.87;;;4.70;99.90;;;;;;4997873;28;20232;-87
2021/03/14 06:25:53;;;;;;;10.50;4.27;;;4.80;99.90;;;;;;5008246;28;20295;-89
2021/03/14 06:28:33;;;;;;;13.43;5.00;;;4.90;99.90;;;;;;5001698;28;20239;-88
2021/03/14 06:31:16;;;;;;;9.37;5.23;;;5.00;99.90;;;;;;4997794;28;20243;-88
2021/03/14 06:33:43;;;;;;;17.60;4.57;;;5.10;99.90;;;;;;5002198;28;20201;-89
2021/03/14 06:36:12;;;;;;;14.33;5.03;;;5.20;99.90;;;;;;5001746;28;20209;-88
2021/03/14 06:38:39;;;;;;;11.40;5.10;;;5.20;99.90;;;;;;5003979;28;20205;-88
2021/03/14 06:41:16;;;;;;;8.77;4.53;;;5.30;99.90;;;;;;5003222;28;20256;-88
2021/03/14 06:43:45;;;;;;;10.07;4.57;;;5.30;99.90;;;;;;5002607;28;20586;-89
2021/03/14 06:46:20;;;;;;;11.13;5.13;;;5.40;99.90;;;;;;5003542;28;20293;-88
2021/03/14 06:48:47;;;;;;;15.10;5.23;;;5.40;99.90;;;;;;5005314;28;20231;-87
2021/03/14 06:51:32;;;;;;;13.27;5.17;;;5.60;99.90;;;;;;5002453;28;20599;-87
2021/03/14 06:54:17;;;;;;;10.77;4.80;;;5.40;99.90;;;;;;5005589;28;20338;-88
2021/03/14 06:56:57;;;;;;;14.80;5.40;;;5.40;99.90;;;;;;5021919;28;20201;-87
2021/03/14 06:59:24;;;;;;;11.23;5.20;;;5.40;99.90;;;;;;5016014;28;20204;-88
2021/03/14 07:02:06;;;;;;;11.10;4.87;;;5.40;99.90;;;;;;5011084;28;20248;-88
2021/03/14 07:04:35;;;;;;;11.23;4.87;;;5.40;99.90;;;;;;5018904;28;20203;-88
2021/03/14 07:07:01;;;;;;;11.20;4.70;;;5.40;99.90;;;;;;5006847;28;20224;-90
2021/03/14 07:09:29;;;;;;;15.40;4.63;;;5.50;99.90;;;;;;5011903;28;20228;-88
2021/03/14 07:11:56;;;;;;;14.53;5.40;;;5.50;99.90;;;;;;4999275;28;20231;-88
2021/03/14 07:14:26;;;;;;;10.40;5.07;;;5.50;99.90;;;;;;5006317;28;20648;-88
2021/03/14 07:16:53;;;;;;;12.47;4.63;;;5.50;99.90;;;;;;5002958;28;20208;-88
2021/03/14 07:19:26;;;;;;;7.93;4.10;;;5.50;99.90;;;;;;5010034;28;20235;-88
2021/03/14 07:22:01;;;;;;;12.17;4.33;;;5.60;99.90;;;;;;5018710;28;20307;-88
2021/03/14 07:24:32;;;;;;;9.90;4.20;;;5.60;99.90;;;;;;5009215;28;20212;-88
2021/03/14 07:27:00;;;;;;;13.57;4.90;;;5.70;99.90;;;;;;5006889;28;20296;-88
2021/03/14 07:29:28;;;;;;;11.77;4.33;;;5.70;99.90;;;;;;5012448;28;20291;-87
2021/03/14 07:31:55;;;;;;;10.80;4.73;;;5.70;99.90;;;;;;5011179;28;20273;-88
2021/03/14 07:34:22;;;;;;;11.83;4.60;;;5.60;99.90;;;;;;5011587;28;20236;-88
2021/03/14 07:36:50;;;;;;;16.00;4.97;;;5.70;99.90;;;;;;5011065;28;20212;-88
2021/03/14 07:39:17;;;;;;;12.10;4.60;;;5.70;99.90;;;;;;5003600;28;20197;-88
2021/03/14 07:41:44;;;;;;;11.03;4.70;;;5.70;99.90;;;;;;5006452;28;20220;-87
2021/03/14 07:44:11;;;;;;;9.83;4.60;;;5.70;99.90;;;;;;5010705;28;20212;-88
2021/03/14 07:46:40;;;;;;;10.50;4.73;;;5.70;99.90;;;;;;5011025;28;20283;-88
2021/03/14 07:49:07;;;;;;;16.87;4.60;;;5.70;99.90;;;;;;5011738;28;20637;-89
2021/03/14 07:51:37;;;;;;;12.10;5.13;;;5.80;99.90;;;;;;5010415;28;20229;-89
2021/03/14 07:54:06;;;;;;;12.63;5.00;;;5.80;99.90;;;;;;5016698;28;20232;-87
2021/03/14 07:56:36;;;;;;;12.37;4.80;;;5.80;99.90;;;;;;5013053;28;20216;-88
2021/03/14 07:59:02;;;;;;;14.53;5.43;;;5.80;99.90;;;;;;5006474;28;20668;-88
2021/03/14 08:01:31;;;;;;;12.67;5.03;;;5.90;99.90;;;;;;5008370;28;20255;-88
2021/03/14 08:03:58;;;;;;;11.63;4.67;;;5.90;99.90;;;;;;5017267;28;20684;-87
2021/03/14 08:06:54;;;;;;;10.17;4.80;;;5.90;99.90;;;;;;5016029;28;20232;-88
2021/03/14 08:09:41;;;;;;;10.23;5.40;;;5.90;99.90;;;;;;4986588;28;20285;-88
2021/03/14 08:12:15;;;;;;;11.37;4.53;;;6.00;99.90;;;;;;5015472;28;20273;-88
2021/03/14 08:14:42;;;;;;;10.97;4.73;;;6.00;99.90;;;;;;5016087;28;20292;-88
2021/03/14 08:17:17;;;;;;;12.13;4.87;;;6.00;99.90;;;;;;5017045;28;20212;-87
2021/03/14 08:19:44;;;;;;;11.40;4.87;;;6.10;99.90;;;;;;5012075;28;20203;-88
2021/03/14 08:22:42;;;;;;;9.17;4.73;;;6.10;99.90;;;;;;5008277;28;20236;-91
2021/03/14 08:25:27;;;;;;;14.57;5.53;;;6.10;99.90;;;;;;5004513;28;20723;-90
2021/03/14 08:27:56;;;;;;;10.43;4.70;;;6.10;99.90;;;;;;5014851;28;20193;-90
2021/03/14 08:30:45;;;;;;;9.20;4.60;;;6.20;99.90;;;;;;5014911;28;20291;-89
2021/03/14 08:33:25;;;;;;;10.90;4.77;;;6.30;99.90;;;;;;5018127;28;20215;-90
2021/03/14 08:35:53;;;;;;;8.07;4.60;;;6.30;99.90;;;;;;5011064;28;20200;-89
2021/03/14 08:38:51;;;;;;;9.97;4.57;;;6.40;99.90;;;;;;5015213;28;20295;-89
2021/03/14 08:41:30;;;;;;;12.03;5.13;;;6.60;99.90;;;;;;5015227;28;20217;-89
2021/03/14 08:44:00;;;;;;;8.57;4.43;;;6.50;99.90;;;;;;5015479;28;20210;-90
2021/03/14 08:47:07;;;;;;;13.97;4.47;;;6.60;99.90;;;;;;5015474;28;20232;-90
2021/03/14 08:49:35;;;;;;;9.90;4.63;;;6.60;99.90;;;;;;5014966;28;20204;-89
2021/03/14 08:52:02;;;;;;;7.93;3.87;;;6.60;99.90;;;;;;5009099;28;20607;-89
2021/03/14 08:54:33;;;;;;;7.97;3.87;;;6.60;99.90;;;;;;5012257;28;20303;-89
2021/03/14 08:57:03;;;;;;;10.60;4.00;;;6.70;99.90;;;;;;5015463;28;20296;-89
2021/03/14 08:59:30;;;;;;;9.10;3.73;;;6.70;99.90;;;;;;5001545;28;20204;-89
2021/03/14 09:01:59;;;;;;;8.37;4.10;;;6.90;99.90;;;;;;5014872;28;20274;-89
2021/03/14 09:04:35;;;;;;;11.30;4.07;;;7.00;99.90;;;;;;5014626;28;20663;-88
2021/03/14 09:07:06;;;;;;;7.57;3.90;;;7.00;99.90;;;;;;5002919;28;20574;-90
2021/03/14 09:09:34;;;;;;;8.07;3.20;;;7.10;99.90;;;;;;5010687;28;20262;-89
2021/03/14 09:12:05;;;;;;;9.47;3.30;;;7.20;99.90;;;;;;5011498;28;20308;-90
2021/03/14 09:14:39;;;;;;;7.23;3.90;;;7.30;99.90;;;;;;5000444;28;20739;-92
2021/03/14 09:17:08;;;;;;;6.83;3.57;;;7.40;99.90;;;;;;5014721;28;20196;-90
2021/03/14 09:19:41;;;;;;;7.33;3.77;;;7.30;99.90;;;;;;5016538;28;20215;-89
2021/03/14 09:22:16;;;;;;;6.27;3.37;;;7.30;99.90;;;;;;5016529;28;20328;-89
2021/03/14 09:24:45;;;;;;;7.77;4.30;;;7.30;99.90;;;;;;5014294;28;20200;-89
2021/03/14 09:27:16;;;;;;;8.57;3.93;;;7.30;99.90;;;;;;5014401;28;20209;-89
2021/03/14 09:29:46;;;;;;;9.97;4.63;;;7.40;99.90;;;;;;5010077;28;20205;-89
2021/03/14 09:32:25;;;;;;;11.10;4.73;;;7.50;99.90;;;;;;5010996;28;20248;-89
2021/03/14 09:35:08;;;;;;;9.17;3.57;;;7.50;99.90;;;;;;5013082;28;20208;-89
2021/03/14 09:37:35;;;;;;;11.60;3.80;;;7.60;99.90;;;;;;5008920;28;20208;-89
2021/03/14 09:40:10;;;;;;;9.20;3.37;;;7.60;99.90;;;;;;5012999;28;20580;-89
2021/03/14 09:42:38;;;;;;;6.80;3.23;;;7.50;99.90;;;;;;5009426;28;20204;-89
2021/03/14 09:45:09;;;;;;;7.43;3.80;;;7.50;99.90;;;;;;5013879;28;20208;-89
2021/03/14 09:47:36;;;;;;;7.57;3.97;;;7.80;99.90;;;;;;5014052;28;20731;-89
2021/03/14 09:50:06;;;;;;;5.53;3.37;;;8.00;99.90;;;;;;5011500;28;20628;-89
2021/03/14 09:52:36;;;;;;;5.63;3.37;;;8.20;99.90;;;;;;5013064;28;20232;-92
2021/03/14 09:55:03;;;;;;;7.43;3.20;;;8.20;99.90;;;;;;5012441;28;20204;-90
2021/03/14 09:57:29;;;;;;;5.73;3.00;;;8.50;99.90;;;;;;5012513;28;20284;-90
2021/03/14 09:59:58;;;;;;;7.57;3.37;;;8.60;99.90;;;;;;5013473;28;20228;-90
2021/03/14 10:02:24;;;;;;;5.87;3.27;;;8.60;99.90;;;;;;5013213;28;20865;-89
2021/03/14 10:04:51;;;;;;;4.93;3.27;;;8.40;99.90;;;;;;5007011;28;20651;-88
2021/03/14 10:07:25;;;;;;;6.20;3.43;;;8.20;99.90;;;;;;5013305;28;20287;-91
2021/03/14 10:09:51;;;;;;;9.47;3.20;;;8.30;99.90;;;;;;5009107;28;20300;-90
2021/03/14 10:12:19;;;;;;;7.63;3.00;;;8.30;99.90;;;;;;5008538;28;20307;-91
2021/03/14 10:14:46;;;;;;;6.50;2.90;;;8.40;99.90;;;;;;5009333;28;20209;-91
2021/03/14 10:17:14;;;;;;;4.93;2.57;;;8.60;99.90;;;;;;5002280;28;20220;-91
2021/03/14 10:19:41;;;;;;;8.53;3.47;;;8.30;99.90;;;;;;5011668;28;20212;-90
2021/03/14 10:22:08;;;;;;;6.80;3.33;;;8.30;99.90;;;;;;5003819;28;20229;-91
2021/03/14 10:24:45;;;;;;;7.40;3.00;;;8.30;99.90;;;;;;5013031;28;20245;-90
2021/03/14 10:27:12;;;;;;;6.03;2.83;;;8.00;99.90;;;;;;5011455;28;20574;-92
2021/03/14 10:29:40;;;;;;;7.20;3.07;;;8.00;99.90;;;;;;5012892;28;20757;-91
2021/03/14 10:32:20;;;;;;;4.90;2.63;;;7.90;99.90;;;;;;5008319;28;20236;-91
2021/03/14 10:34:51;;;;;;;4.90;2.50;;;8.00;99.90;;;;;;4999763;28;20212;-92
2021/03/14 10:37:30;;;;;;;6.80;2.93;;;8.30;99.90;;;;;;5011627;28;20657;-91
2021/03/14 10:40:01;;;;;;;7.73;2.77;;;8.20;99.90;;;;;;5011815;28;20214;-91
2021/03/14 10:42:32;;;;;;;7.33;2.83;;;8.20;99.90;;;;;;5005410;28;20201;-92
2021/03/14 10:45:08;;;;;;;8.13;3.17;;;8.30;99.90;;;;;;5011813;28;20220;-92
2021/03/14 10:47:38;;;;;;;7.40;2.57;;;8.30;99.90;;;;;;5016755;28;20227;-92
2021/03/14 10:50:10;;;;;;;6.00;2.70;;;8.40;99.90;;;;;;5013719;28;20237;-93
2021/03/14 10:52:37;;;;;;;6.17;2.80;;;8.60;99.90;;;;;;5012512;28;20709;-91
2021/03/14 10:55:24;;;;;;;6.00;2.90;;;8.80;99.90;;;;;;5013768;28;20212;-92
2021/03/14 10:58:07;;;;;;;5.70;2.70;;;8.90;99.90;;;;;;5013551;28;20204;-91
2021/03/14 11:00:38;;;;;;;4.23;2.83;;;8.90;99.90;;;;;;5008530;28;20224;-90
2021/03/14 11:03:12;;;;;;;4.57;2.50;;;8.60;99.90;;;;;;5022340;28;20283;-91
2021/03/14 11:05:47;;;;;;;6.50;3.00;;;8.70;99.90;;;;;;5013241;28;20220;-88
2021/03/14 11:08:13;;;;;;;9.30;2.70;;;8.80;99.90;;;;;;5015558;28;20219;-92
2021/03/14 11:10:53;;;;;;;4.83;2.97;;;8.80;99.90;;;;;;5007095;28;20245;-90
2021/03/14 11:13:19;;;;;;;5.03;3.00;;;9.00;99.90;;;;;;5003873;28;20680;-91
2021/03/14 11:15:48;;;;;;;8.87;4.00;;;8.70;99.90;;;;;;5003642;28;20209;-90
2021/03/14 11:18:24;;;;;;;5.73;3.30;;;8.60;99.90;;;;;;5006415;28;20216;-91
2021/03/14 11:20:50;;;;;;;6.97;3.53;;;8.90;99.90;;;;;;4997937;28;20346;-91
2021/03/14 11:23:17;;;;;;;7.23;3.13;;;9.10;99.90;;;;;;5002697;28;20201;-88
2021/03/14 11:25:43;;;;;;;6.53;2.80;;;9.40;99.90;;;;;;5011540;28;20212;-88
2021/03/14 11:28:09;;;;;;;7.73;3.33;;;9.50;99.90;;;;;;5012609;28;20212;-89
2021/03/14 11:30:38;;;;;;;7.10;3.27;;;9.80;99.90;;;;;;5013510;28;20238;-89
2021/03/14 11:33:08;;;;;;;5.20;3.00;;;9.90;99.90;;;;;;5009682;28;20235;-89
2021/03/14 11:35:37;;;;;;;5.30;2.70;;;10.20;99.90;;;;;;5014215;28;20291;-89
2021/03/14 11:38:05;;;;;;;6.90;3.10;;;10.00;99.90;;;;;;5014389;28;20228;-89
2021/03/14 11:40:32;;;;;;;6.83;2.93;;;10.00;99.90;;;;;;5015598;28;20604;-91
2021/03/14 11:43:00;;;;;;;5.30;2.63;;;10.20;99.90;;;;;;5008313;28;20212;-91
2021/03/14 11:45:30;;;;;;;3.80;2.40;;;9.70;99.90;;;;;;5014733;28;20200;-90
2021/03/14 11:47:58;;;;;;;6.70;2.87;;;9.80;99.90;;;;;;5007768;28;20826;-92
2021/03/14 11:50:25;;;;;;;8.93;3.10;;;10.30;99.90;;;;;;4997377;28;20228;-91
2021/03/14 11:52:52;;;;;;;3.57;2.10;;;10.70;99.90;;;;;;5002960;28;20232;-92
2021/03/14 11:55:18;;;;;;;3.60;2.40;;;10.80;99.90;;;;;;5012270;28;20451;-93
2021/03/14 11:57:45;;;;;;;4.27;2.50;;;10.80;99.90;;;;;;5007187;28;20245;-92
2021/03/14 12:00:13;;;;;;;3.90;2.60;;;10.80;99.90;;;;;;5011863;28;20219;-91
2021/03/14 12:02:39;;;;;;;5.13;2.80;;;11.00;99.90;;;;;;5013030;28;20212;-92
2021/03/14 12:05:09;;;;;;;5.43;2.97;;;11.20;99.90;;;;;;5006134;28;20589;-92
2021/03/14 12:07:36;;;;;;;5.23;2.97;;;11.20;99.90;;;;;;5008325;28;20267;-94
2021/03/14 12:10:05;;;;;;;8.57;3.00;;;11.10;99.90;;;;;;5013525;28;20212;-93
2021/03/14 12:12:33;;;;;;;5.23;3.33;;;11.10;99.90;;;;;;5004016;28;20232;-94
2021/03/14 12:15:00;;;;;;;9.27;2.97;;;11.50;99.90;;;;;;5008918;28;20226;-95
2021/03/14 12:17:26;;;;;;;5.87;3.00;;;11.40;99.90;;;;;;5012894;28;20224;-94
2021/03/14 12:19:54;;;;;;;5.60;2.87;;;11.40;99.90;;;;;;5004268;28;20225;-91
2021/03/14 12:22:23;;;;;;;8.60;2.93;;;11.90;99.90;;;;;;5009875;28;20232;-91
2021/03/14 12:24:50;;;;;;;6.93;3.27;;;12.10;99.90;;;;;;5011247;28;20212;-91
2021/03/14 12:27:19;;;;;;;2.90;2.70;;;11.30;99.90;;;;;;5006092;28;20231;-92
2021/03/14 12:29:47;;;;;;;4.60;3.10;;;10.90;99.90;;;;;;5011652;28;20215;-91
2021/03/14 12:32:15;;;;;;;5.90;2.90;;;10.50;99.90;;;;;;5011889;28;20320;-90
2021/03/14 12:34:44;;;;;;;4.03;3.03;;;10.30;99.90;;;;;;5012239;28;20243;-92
2021/03/14 12:37:11;;;;;;;6.00;2.50;;;10.40;99.90;;;;;;5007298;28;20238;-91
2021/03/14 12:39:40;;;;;;;5.70;2.30;;;11.00;99.90;;;;;;5012106;28;20299;-92
2021/03/14 12:42:07;;;;;;;5.03;2.67;;;10.90;99.90;;;;;;5012589;28;20240;-91
2021/03/14 12:44:34;;;;;;;3.60;3.03;;;11.40;99.90;;;;;;5011630;28;20215;-91
2021/03/14 12:47:00;;;;;;;5.60;3.00;;;11.10;99.90;;;;;;5009737;28;20228;-92
2021/03/14 12:49:27;;;;;;;4.33;2.93;;;11.10;99.90;;;;;;5010001;28;20224;-91
2021/03/14 12:51:57;;;;;;;5.33;3.23;;;10.60;99.90;;;;;;5010389;28;20278;-91
2021/03/14 12:54:23;;;;;;;5.23;3.63;;;10.20;99.90;;;;;;5012239;28;20690;-90
2021/03/14 12:56:50;;;;;;;5.87;2.90;;;9.60;99.90;;;;;;5007191;28;20208;-92
2021/03/14 12:59:16;;;;;;;4.30;3.27;;;9.60;99.90;;;;;;5012112;28;20223;-91
2021/03/14 13:01:48;;;;;;;7.90;3.50;;;9.30;99.90;;;;;;5012184;28;20308;-92
2021/03/14 13:04:15;;;;;;;5.60;3.40;;;9.50;99.90;;;;;;5005703;28;20201;-92